createdAt,value
2023-01-29T00:01:59.678Z,-2.52
2023-01-29T00:04:27.291Z,-2.54
2023-01-29T00:06:55.932Z,-2.54
2023-01-29T00:09:23.239Z,-2.53
2023-01-29T00:11:53.424Z,-2.50
2023-01-29T00:14:20.881Z,-2.50
2023-01-29T00:16:48.363Z,-2.54
2023-01-29T00:19:15.670Z,-2.50
2023-01-29T00:21:43.719Z,-2.50
2023-01-29T00:24:12.676Z,-2.49
2023-01-29T00:26:40.296Z,-2.48
2023-01-29T00:29:07.472Z,-2.47
2023-01-29T00:31:34.788Z,-2.45
2023-01-29T00:34:02.321Z,-2.47
2023-01-29T00:36:29.777Z,-2.46
2023-01-29T00:39:02.751Z,-2.45
2023-01-29T00:41:51.397Z,-2.45
2023-01-29T00:44:38.607Z,-2.50
2023-01-29T00:47:29.501Z,-2.52
2023-01-29T00:49:57.231Z,-2.57
2023-01-29T00:52:24.892Z,-2.56
2023-01-29T00:54:52.383Z,-2.58
2023-01-29T00:57:21.516Z,-2.60
2023-01-29T00:59:48.965Z,-2.61
2023-01-29T01:02:34.859Z,-2.63
2023-01-29T01:05:06.280Z,-2.65
2023-01-29T01:07:34.394Z,-2.66
2023-01-29T01:10:20.372Z,-2.64
2023-01-29T01:12:52.150Z,-2.65
2023-01-29T01:15:20.007Z,-2.65
2023-01-29T01:17:48.995Z,-2.69
2023-01-29T01:20:16.594Z,-2.73
2023-01-29T01:22:44.001Z,-2.81
2023-01-29T01:25:11.433Z,-2.86
2023-01-29T01:27:41.447Z,-2.91
2023-01-29T01:30:14.428Z,-2.87
2023-01-29T01:32:42.230Z,-2.91
2023-01-29T01:35:10.862Z,-2.92
2023-01-29T01:37:38.899Z,-2.95
2023-01-29T01:40:12.972Z,-2.96
2023-01-29T01:42:40.659Z,-2.93
2023-01-29T01:45:18.883Z,-2.89
2023-01-29T01:47:49.806Z,-2.88
2023-01-29T01:50:22.080Z,-2.86
2023-01-29T01:52:53.372Z,-2.85
2023-01-29T01:55:25.770Z,-2.87
2023-01-29T01:57:58.017Z,-2.86
2023-01-29T02:00:27.459Z,-2.96
2023-01-29T02:03:14.224Z,-3.09
2023-01-29T02:06:01.003Z,-3.17
2023-01-29T02:08:56.321Z,-3.20
2023-01-29T02:11:24.796Z,-3.20
2023-01-29T02:13:53.775Z,-3.22
2023-01-29T02:16:27.744Z,-3.21
2023-01-29T02:18:56.513Z,-3.24
2023-01-29T02:22:02.860Z,-3.23
2023-01-29T02:25:09.955Z,-3.22
2023-01-29T02:28:11.026Z,-3.16
2023-01-29T02:30:44.493Z,-3.15
2023-01-29T02:33:25.905Z,-3.12
2023-01-29T02:35:59.645Z,-3.11
2023-01-29T02:38:35.411Z,-3.10
2023-01-29T02:41:09.489Z,-3.09
2023-01-29T02:43:45.782Z,-3.10
2023-01-29T02:46:19.008Z,-3.08
2023-01-29T02:48:55.628Z,-3.11
2023-01-29T02:51:30.783Z,-3.14
2023-01-29T02:54:01.752Z,-3.12
2023-01-29T02:56:37.617Z,-3.12
2023-01-29T02:59:09.325Z,-3.14
2023-01-29T03:01:45.069Z,-3.19
2023-01-29T03:04:17.257Z,-3.17
2023-01-29T03:06:52.165Z,-3.13
2023-01-29T03:09:25.611Z,-3.19
2023-01-29T03:11:58.951Z,-3.19
2023-01-29T03:14:52.920Z,-3.20
2023-01-29T03:17:26.596Z,-3.21
2023-01-29T03:19:54.879Z,-3.21
2023-01-29T03:22:24.326Z,-3.22
2023-01-29T03:25:15.786Z,-3.23
2023-01-29T03:28:08.512Z,-3.25
2023-01-29T03:31:02.624Z,-3.26
2023-01-29T03:33:46.466Z,-3.27
2023-01-29T03:36:18.941Z,-3.30
2023-01-29T03:38:46.558Z,-3.25
2023-01-29T03:41:23.438Z,-3.22
2023-01-29T03:43:56.778Z,-3.18
2023-01-29T03:46:31.595Z,-3.20
2023-01-29T03:49:08.466Z,-3.20
2023-01-29T03:51:42.413Z,-3.20
2023-01-29T03:54:17.601Z,-3.22
2023-01-29T03:56:55.575Z,-3.28
2023-01-29T03:59:36.272Z,-3.26
2023-01-29T04:02:38.952Z,-3.34
2023-01-29T04:05:17.467Z,-3.36
2023-01-29T04:08:13.181Z,-3.39
2023-01-29T04:10:44.624Z,-3.44
2023-01-29T04:13:14.357Z,-3.49
2023-01-29T04:15:47.599Z,-3.46
2023-01-29T04:18:18.298Z,-3.44
2023-01-29T04:21:07.519Z,-3.45
2023-01-29T04:23:34.981Z,-3.36
2023-01-29T04:26:26.735Z,-3.43
2023-01-29T04:29:16.688Z,-3.42
2023-01-29T04:31:55.789Z,-3.39
2023-01-29T04:34:28.668Z,-3.39
2023-01-29T04:37:12.867Z,-3.40
2023-01-29T04:39:49.182Z,-3.51
2023-01-29T04:42:27.129Z,-3.46
2023-01-29T04:45:01.675Z,-3.45
2023-01-29T04:47:37.106Z,-3.45
2023-01-29T04:50:12.102Z,-3.45
2023-01-29T04:52:49.684Z,-3.47
2023-01-29T04:55:23.450Z,-3.52
2023-01-29T04:57:56.082Z,-3.54
2023-01-29T05:00:27.711Z,-3.53
2023-01-29T05:02:56.630Z,-3.51
2023-01-29T05:05:23.850Z,-3.53
2023-01-29T05:07:53.881Z,-3.55
2023-01-29T05:10:22.723Z,-3.55
2023-01-29T05:12:55.973Z,-3.52
2023-01-29T05:15:26.591Z,-3.55
2023-01-29T05:17:54.036Z,-3.56
2023-01-29T05:20:22.162Z,-3.52
2023-01-29T05:22:49.578Z,-3.56
2023-01-29T05:25:23.842Z,-3.58
2023-01-29T05:28:05.291Z,-3.57
2023-01-29T05:30:37.699Z,-3.65
2023-01-29T05:33:11.737Z,-3.63
2023-01-29T05:35:39.147Z,-3.57
2023-01-29T05:38:06.558Z,-3.57
2023-01-29T05:40:36.163Z,-3.57
2023-01-29T05:43:04.597Z,-3.56
2023-01-29T05:45:32.205Z,-3.56
2023-01-29T05:48:00.685Z,-3.55
2023-01-29T05:50:28.154Z,-3.57
2023-01-29T05:52:59.356Z,-3.54
2023-01-29T05:55:27.198Z,-3.54
2023-01-29T05:57:55.846Z,-3.54
2023-01-29T06:00:23.580Z,-3.52
2023-01-29T06:02:51.019Z,-3.50
2023-01-29T06:05:18.349Z,-3.54
2023-01-29T06:07:46.246Z,-3.52
2023-01-29T06:10:13.925Z,-3.57
2023-01-29T06:12:42.001Z,-3.63
2023-01-29T06:15:12.192Z,-3.60
2023-01-29T06:17:39.383Z,-3.62
2023-01-29T06:20:08.359Z,-3.61
2023-01-29T06:22:35.742Z,-3.58
2023-01-29T06:25:03.864Z,-3.55
2023-01-29T06:27:31.371Z,-3.56
2023-01-29T06:29:58.742Z,-3.53
2023-01-29T06:32:28.061Z,-3.52
2023-01-29T06:34:55.397Z,-3.48
2023-01-29T06:37:22.734Z,-3.52
2023-01-29T06:39:50.030Z,-3.54
2023-01-29T06:42:17.433Z,-3.55
2023-01-29T06:44:45.169Z,-3.56
2023-01-29T06:47:12.520Z,-3.53
2023-01-29T06:49:41.266Z,-3.52
2023-01-29T06:52:08.597Z,-3.57
2023-01-29T06:54:35.975Z,-3.59
2023-01-29T06:57:03.459Z,-3.57
2023-01-29T06:59:30.938Z,-3.58
2023-01-29T07:01:59.057Z,-3.57
2023-01-29T07:04:26.523Z,-3.57
2023-01-29T07:06:55.202Z,-3.56
2023-01-29T07:09:22.603Z,-3.56
2023-01-29T07:11:49.941Z,-3.58
2023-01-29T07:14:17.379Z,-3.56
2023-01-29T07:16:44.673Z,-3.57
2023-01-29T07:19:11.923Z,-3.60
2023-01-29T07:21:39.284Z,-3.57
2023-01-29T07:24:08.800Z,-3.52
2023-01-29T07:26:36.003Z,-3.56
2023-01-29T07:29:05.271Z,-3.54
2023-01-29T07:31:32.634Z,-3.51
2023-01-29T07:33:59.979Z,-3.47
2023-01-29T07:36:28.010Z,-3.49
2023-01-29T07:38:55.669Z,-3.49
2023-01-29T07:41:24.350Z,-3.49
2023-01-29T07:43:51.604Z,-3.47
2023-01-29T07:46:19.033Z,-3.42
2023-01-29T07:48:46.299Z,-3.40
2023-01-29T07:51:13.809Z,-3.34
2023-01-29T07:53:41.427Z,-3.26
2023-01-29T07:56:08.707Z,-3.19
2023-01-29T07:58:37.485Z,-3.11
2023-01-29T08:01:07.544Z,-3.10
2023-01-29T08:03:35.071Z,-3.08
2023-01-29T08:06:04.276Z,-3.18
2023-01-29T08:08:31.570Z,-3.15
2023-01-29T08:11:01.735Z,-3.13
2023-01-29T08:13:29.015Z,-3.14
2023-01-29T08:16:01.376Z,-3.19
2023-01-29T08:18:28.878Z,-3.15
2023-01-29T08:21:00.105Z,-3.19
2023-01-29T08:23:27.537Z,-3.20
2023-01-29T08:25:55.148Z,-3.17
2023-01-29T08:28:22.870Z,-3.17
2023-01-29T08:30:50.175Z,-3.10
2023-01-29T08:33:23.699Z,-3.12
2023-01-29T08:35:54.029Z,-3.06
2023-01-29T08:38:21.548Z,-3.07
2023-01-29T08:40:50.412Z,-3.05
2023-01-29T08:43:17.744Z,-3.03
2023-01-29T08:45:45.354Z,-3.00
2023-01-29T08:48:12.727Z,-2.97
2023-01-29T08:50:41.391Z,-2.89
2023-01-29T08:53:09.668Z,-2.88
2023-01-29T08:55:37.962Z,-2.86
2023-01-29T08:58:05.653Z,-2.89
2023-01-29T09:00:33.626Z,-2.85
2023-01-29T09:03:01.239Z,-2.88
2023-01-29T09:05:29.033Z,-2.87
2023-01-29T09:07:58.591Z,-2.90
2023-01-29T09:10:25.906Z,-2.91
2023-01-29T09:12:53.260Z,-2.79
2023-01-29T09:15:20.539Z,-2.83
2023-01-29T09:17:49.564Z,-2.85
2023-01-29T09:20:17.765Z,-2.83
2023-01-29T09:22:45.739Z,-2.81
2023-01-29T09:25:15.047Z,-2.77
2023-01-29T09:27:42.786Z,-2.68
2023-01-29T09:30:11.873Z,-2.76
2023-01-29T09:32:55.033Z,-2.78
2023-01-29T09:35:22.673Z,-2.78
2023-01-29T09:37:50.861Z,-2.83
2023-01-29T09:40:26.866Z,-2.89
2023-01-29T09:43:00.607Z,-2.79
2023-01-29T09:45:29.348Z,-2.78
2023-01-29T09:48:00.144Z,-2.82
2023-01-29T09:50:31.603Z,-2.83
2023-01-29T09:53:04.021Z,-2.78
2023-01-29T09:55:37.477Z,-2.77
2023-01-29T09:58:14.320Z,-2.76
2023-01-29T10:00:51.995Z,-2.60
2023-01-29T10:03:40.641Z,-2.68
2023-01-29T10:06:23.887Z,-2.75
2023-01-29T10:09:05.647Z,-2.69
2023-01-29T10:11:43.192Z,-2.65
2023-01-29T10:14:18.370Z,-2.66
2023-01-29T10:16:59.535Z,-2.69
2023-01-29T10:19:48.665Z,-2.61
2023-01-29T10:22:52.595Z,-2.63
2023-01-29T10:25:22.220Z,-2.66
2023-01-29T10:27:53.550Z,-2.69
2023-01-29T10:30:33.335Z,-2.65
2023-01-29T10:33:02.437Z,-2.71
2023-01-29T10:35:33.912Z,-2.73
2023-01-29T10:38:14.425Z,-2.87
2023-01-29T10:40:50.952Z,-2.71
2023-01-29T10:43:29.775Z,-2.66
2023-01-29T10:46:16.102Z,-2.71
2023-01-29T10:48:59.598Z,-2.67
2023-01-29T10:51:49.029Z,-2.57
2023-01-29T10:54:35.459Z,-2.62
2023-01-29T10:57:08.959Z,-2.58
2023-01-29T10:59:49.583Z,-2.48
2023-01-29T11:02:21.371Z,-2.52
2023-01-29T11:04:49.285Z,-2.62
2023-01-29T11:07:22.152Z,-2.54
2023-01-29T11:09:57.795Z,-2.55
2023-01-29T11:12:30.824Z,-2.53
2023-01-29T11:15:01.947Z,-2.56
2023-01-29T11:17:30.043Z,-2.57
2023-01-29T11:19:57.400Z,-2.57
2023-01-29T11:22:26.329Z,-2.57
2023-01-29T11:25:10.203Z,-2.62
2023-01-29T11:27:43.968Z,-2.66
2023-01-29T11:30:22.448Z,-2.66
2023-01-29T11:33:00.870Z,-2.60
2023-01-29T11:35:30.389Z,-2.60
2023-01-29T11:38:08.947Z,-2.59
2023-01-29T11:40:40.969Z,-2.56
2023-01-29T11:43:30.631Z,-2.51
2023-01-29T11:46:02.934Z,-2.41
2023-01-29T11:48:40.916Z,-2.44
2023-01-29T11:51:10.954Z,-2.41
2023-01-29T11:53:42.107Z,-2.37
2023-01-29T11:56:23.977Z,-2.31
2023-01-29T11:58:53.896Z,-2.39
2023-01-29T12:01:31.302Z,-2.39
2023-01-29T12:03:59.374Z,-2.35
2023-01-29T12:06:34.408Z,-2.35
2023-01-29T12:09:03.966Z,-2.41
2023-01-29T12:11:33.281Z,-2.39
2023-01-29T12:14:02.511Z,-2.37
2023-01-29T12:16:36.813Z,-2.39
2023-01-29T12:19:13.074Z,-2.35
2023-01-29T12:21:48.071Z,-2.42
2023-01-29T12:24:29.847Z,-2.41
2023-01-29T12:27:05.966Z,-2.46
2023-01-29T12:29:42.923Z,-2.45
2023-01-29T12:32:27.665Z,-2.43
2023-01-29T12:35:01.310Z,-2.42
2023-01-29T12:37:38.975Z,-2.40
2023-01-29T12:40:13.144Z,-2.44
2023-01-29T12:42:44.570Z,-2.53
2023-01-29T12:45:18.234Z,-2.42
2023-01-29T12:47:50.541Z,-2.53
2023-01-29T12:50:22.339Z,-2.51
2023-01-29T12:52:54.045Z,-2.53
2023-01-29T12:55:25.889Z,-2.53
2023-01-29T12:57:57.550Z,-2.56
2023-01-29T13:00:27.542Z,-2.49
2023-01-29T13:03:01.789Z,-2.45
2023-01-29T13:05:31.874Z,-2.50
2023-01-29T13:08:05.840Z,-2.43
2023-01-29T13:10:41.227Z,-2.42
2023-01-29T13:13:16.265Z,-2.45
2023-01-29T13:15:44.978Z,-2.39
2023-01-29T13:18:33.389Z,-2.37
2023-01-29T13:21:01.447Z,-2.33
2023-01-29T13:23:35.148Z,-2.32
2023-01-29T13:26:02.574Z,-2.30
2023-01-29T13:28:30.748Z,-2.32
2023-01-29T13:31:28.756Z,-2.32
2023-01-29T13:34:07.618Z,-2.35
2023-01-29T13:36:37.402Z,-2.30
2023-01-29T13:39:07.882Z,-2.27
2023-01-29T13:41:38.647Z,-2.35
2023-01-29T13:44:09.077Z,-2.43
2023-01-29T13:46:41.415Z,-2.42
2023-01-29T13:49:26.160Z,-2.48
2023-01-29T13:51:57.309Z,-2.46
2023-01-29T13:54:27.197Z,-2.42
2023-01-29T13:56:59.449Z,-2.39
2023-01-29T13:59:53.166Z,-2.38
2023-01-29T14:02:26.036Z,-2.39
2023-01-29T14:05:26.756Z,-2.43
2023-01-29T14:07:56.072Z,-2.41
2023-01-29T14:10:24.579Z,-2.49
2023-01-29T14:12:53.356Z,-2.43
2023-01-29T14:15:29.741Z,-2.54
2023-01-29T14:18:01.028Z,-2.58
2023-01-29T14:20:45.158Z,-2.61
2023-01-29T14:23:28.837Z,-2.49
2023-01-29T14:25:57.615Z,-2.49
2023-01-29T14:28:28.751Z,-2.48
2023-01-29T14:30:56.712Z,-2.63
2023-01-29T14:33:36.178Z,-2.65
2023-01-29T14:36:11.520Z,-2.73
2023-01-29T14:38:41.998Z,-2.69
2023-01-29T14:41:25.891Z,-2.70
2023-01-29T14:44:32.800Z,-2.66
2023-01-29T14:47:00.035Z,-2.69
2023-01-29T14:49:49.492Z,-2.50
2023-01-29T14:52:19.037Z,-2.63
2023-01-29T14:54:49.140Z,-2.63
2023-01-29T14:57:18.314Z,-2.62
2023-01-29T14:59:53.589Z,-2.65
2023-01-29T15:02:27.066Z,-2.50
2023-01-29T15:04:56.452Z,-2.67
2023-01-29T15:07:30.476Z,-2.65
2023-01-29T15:10:22.042Z,-2.76
2023-01-29T15:12:56.185Z,-2.86
2023-01-29T15:15:29.948Z,-2.55
2023-01-29T15:18:02.206Z,-2.62
2023-01-29T15:20:33.336Z,-2.76
2023-01-29T15:23:03.456Z,-2.74
2023-01-29T15:25:36.852Z,-2.81
2023-01-29T15:28:08.598Z,-2.75
2023-01-29T15:30:37.909Z,-2.72
2023-01-29T15:33:10.825Z,-2.82
2023-01-29T15:35:40.466Z,-2.82
2023-01-29T15:38:16.969Z,-2.80
2023-01-29T15:40:53.650Z,-2.82
2023-01-29T15:43:23.051Z,-2.82
2023-01-29T15:45:51.820Z,-2.83
2023-01-29T15:48:24.720Z,-2.81
2023-01-29T15:50:54.576Z,-2.81
2023-01-29T15:53:31.402Z,-2.87
2023-01-29T15:56:01.114Z,-2.82
2023-01-29T15:58:31.985Z,-2.81
2023-01-29T16:01:01.344Z,-2.87
2023-01-29T16:03:32.955Z,-2.79
2023-01-29T16:06:03.070Z,-2.88
2023-01-29T16:08:30.803Z,-2.86
2023-01-29T16:11:01.958Z,-2.82
2023-01-29T16:13:32.067Z,-2.82
2023-01-29T16:16:08.531Z,-2.84
2023-01-29T16:18:41.087Z,-2.86
2023-01-29T16:21:23.269Z,-2.83
2023-01-29T16:23:53.039Z,-2.88
2023-01-29T16:26:25.319Z,-2.84
2023-01-29T16:28:53.069Z,-2.80
2023-01-29T16:31:27.446Z,-2.91
2023-01-29T16:33:57.964Z,-2.90
2023-01-29T16:36:28.060Z,-2.88
2023-01-29T16:39:00.161Z,-2.86
2023-01-29T16:41:36.066Z,-2.94
2023-01-29T16:44:25.109Z,-2.86
2023-01-29T16:46:52.457Z,-2.91
2023-01-29T16:49:51.429Z,-2.89
2023-01-29T16:52:22.988Z,-2.84
2023-01-29T16:54:50.382Z,-2.90
2023-01-29T16:57:25.934Z,-2.98
2023-01-29T16:59:55.756Z,-2.89
2023-01-29T17:02:26.891Z,-2.83
2023-01-29T17:04:58.918Z,-2.92
2023-01-29T17:07:27.032Z,-2.96
2023-01-29T17:09:56.572Z,-2.88
2023-01-29T17:12:30.188Z,-2.90
2023-01-29T17:14:59.002Z,-2.90
2023-01-29T17:17:31.821Z,-2.89
2023-01-29T17:20:03.685Z,-2.92
2023-01-29T17:22:30.973Z,-2.88
2023-01-29T17:24:58.537Z,-2.92
2023-01-29T17:27:27.284Z,-2.96
2023-01-29T17:29:55.305Z,-2.96
2023-01-29T17:32:22.717Z,-3.00
2023-01-29T17:34:51.541Z,-2.98
2023-01-29T17:37:22.340Z,-3.01
2023-01-29T17:39:53.106Z,-2.95
2023-01-29T17:42:23.097Z,-2.97
2023-01-29T17:44:51.748Z,-2.97
2023-01-29T17:47:19.010Z,-2.96
2023-01-29T17:49:46.471Z,-2.95
2023-01-29T17:52:13.796Z,-2.96
2023-01-29T17:54:41.214Z,-2.95
2023-01-29T17:57:10.330Z,-2.96
2023-01-29T17:59:38.026Z,-2.97
2023-01-29T18:02:06.884Z,-2.95
2023-01-29T18:04:34.130Z,-2.90
2023-01-29T18:07:01.452Z,-2.86
2023-01-29T18:09:28.877Z,-2.90
2023-01-29T18:11:56.203Z,-2.88
2023-01-29T18:14:23.399Z,-2.89
2023-01-29T18:16:50.792Z,-2.90
2023-01-29T18:19:23.005Z,-2.89
2023-01-29T18:21:51.023Z,-2.85
2023-01-29T18:24:20.509Z,-2.89
2023-01-29T18:26:48.671Z,-2.90
2023-01-29T18:29:16.394Z,-2.83
2023-01-29T18:31:47.678Z,-2.83
2023-01-29T18:34:15.506Z,-2.87
2023-01-29T18:36:47.117Z,-2.89
2023-01-29T18:39:14.459Z,-2.91
2023-01-29T18:41:41.796Z,-2.92
2023-01-29T18:44:10.708Z,-2.94
2023-01-29T18:46:38.058Z,-2.88
2023-01-29T18:49:05.344Z,-2.89
2023-01-29T18:51:32.802Z,-2.89
2023-01-29T18:54:01.434Z,-2.89
2023-01-29T18:56:28.899Z,-2.91
2023-01-29T18:58:59.022Z,-2.86
2023-01-29T19:01:27.358Z,-2.83
2023-01-29T19:03:55.142Z,-2.87
2023-01-29T19:06:22.514Z,-2.83
2023-01-29T19:08:49.908Z,-2.86
2023-01-29T19:11:19.471Z,-2.85
2023-01-29T19:13:48.131Z,-2.83
2023-01-29T19:16:15.723Z,-2.84
2023-01-29T19:18:43.809Z,-2.81
2023-01-29T19:21:12.828Z,-2.86
2023-01-29T19:23:41.005Z,-2.88
2023-01-29T19:26:09.151Z,-2.81
2023-01-29T19:28:37.947Z,-2.83
2023-01-29T19:31:06.064Z,-2.83
2023-01-29T19:33:33.821Z,-2.81
2023-01-29T19:36:01.527Z,-2.81
2023-01-29T19:38:29.336Z,-2.78
2023-01-29T19:40:56.498Z,-2.81
2023-01-29T19:43:24.012Z,-2.79
2023-01-29T19:45:57.959Z,-2.82
2023-01-29T19:48:26.681Z,-2.82
2023-01-29T19:50:54.673Z,-2.86
2023-01-29T19:53:23.208Z,-2.88
2023-01-29T19:55:58.355Z,-2.86
2023-01-29T19:58:25.736Z,-2.85
2023-01-29T20:00:58.796Z,-2.85
2023-01-29T20:03:26.935Z,-2.86
2023-01-29T20:05:54.849Z,-2.86
2023-01-29T20:08:23.997Z,-2.89
2023-01-29T20:10:51.369Z,-2.88
2023-01-29T20:13:18.796Z,-2.89
2023-01-29T20:15:46.762Z,-2.92
2023-01-29T20:18:16.566Z,-2.95
2023-01-29T20:20:45.207Z,-2.90
2023-01-29T20:23:13.753Z,-2.92
2023-01-29T20:25:41.854Z,-2.98
2023-01-29T20:28:13.354Z,-2.97
2023-01-29T20:30:42.237Z,-2.99
2023-01-29T20:33:10.169Z,-3.02
2023-01-29T20:35:39.715Z,-3.05
2023-01-29T20:38:07.622Z,-3.00
2023-01-29T20:40:35.143Z,-3.03
2023-01-29T20:43:02.544Z,-3.04
2023-01-29T20:45:31.002Z,-3.02
2023-01-29T20:47:58.841Z,-2.99
2023-01-29T20:50:26.196Z,-3.05
2023-01-29T20:52:54.952Z,-3.10
2023-01-29T20:55:22.738Z,-3.07
2023-01-29T20:58:05.138Z,-3.06
2023-01-29T21:00:34.130Z,-3.02
2023-01-29T21:03:01.735Z,-3.00
2023-01-29T21:05:29.079Z,-2.98
2023-01-29T21:07:57.725Z,-2.99
2023-01-29T21:10:25.383Z,-3.01
2023-01-29T21:12:54.253Z,-3.09
2023-01-29T21:15:23.448Z,-3.08
2023-01-29T21:17:51.803Z,-3.07
2023-01-29T21:20:19.258Z,-3.07
2023-01-29T21:22:49.159Z,-3.09
2023-01-29T21:25:21.543Z,-3.00
2023-01-29T21:27:50.264Z,-3.11
2023-01-29T21:30:18.766Z,-3.08
2023-01-29T21:32:46.719Z,-3.08
2023-01-29T21:35:15.358Z,-3.11
2023-01-29T21:37:42.628Z,-3.15
2023-01-29T21:40:11.406Z,-3.12
2023-01-29T21:42:59.767Z,-3.01
2023-01-29T21:45:27.077Z,-3.11
2023-01-29T21:47:54.617Z,-3.09
2023-01-29T21:50:21.911Z,-3.02
2023-01-29T21:52:49.246Z,-3.08
2023-01-29T21:55:16.715Z,-3.11
2023-01-29T21:57:47.050Z,-3.13
2023-01-29T22:00:15.376Z,-3.11
2023-01-29T22:02:42.969Z,-3.11
2023-01-29T22:05:18.836Z,-3.11
2023-01-29T22:07:47.836Z,-3.01
2023-01-29T22:10:17.335Z,-3.09
2023-01-29T22:12:46.714Z,-3.09
2023-01-29T22:15:14.944Z,-3.08
2023-01-29T22:17:42.499Z,-3.00
2023-01-29T22:20:12.015Z,-2.97
2023-01-29T22:22:39.566Z,-3.02
2023-01-29T22:25:07.596Z,-3.04
2023-01-29T22:27:35.193Z,-3.03
2023-01-29T22:30:04.523Z,-3.05
2023-01-29T22:32:32.871Z,-3.03
2023-01-29T22:35:00.278Z,-3.08
2023-01-29T22:37:27.730Z,-3.08
2023-01-29T22:39:54.971Z,-3.06
2023-01-29T22:42:22.180Z,-3.06
2023-01-29T22:44:49.523Z,-3.05
2023-01-29T22:47:18.489Z,-3.02
2023-01-29T22:49:49.227Z,-3.04
2023-01-29T22:52:20.319Z,-3.07
2023-01-29T22:54:47.700Z,-3.09
2023-01-29T22:57:15.627Z,-3.10
2023-01-29T22:59:43.259Z,-3.08
2023-01-29T23:02:11.604Z,-3.14
2023-01-29T23:04:40.357Z,-3.11
2023-01-29T23:07:07.554Z,-3.11
2023-01-29T23:09:34.822Z,-3.13
2023-01-29T23:12:02.077Z,-3.13
2023-01-29T23:14:29.431Z,-3.03
2023-01-29T23:16:56.989Z,-3.11
2023-01-29T23:19:24.803Z,-3.16
2023-01-29T23:21:53.411Z,-3.19
2023-01-29T23:24:21.282Z,-3.16
2023-01-29T23:27:07.239Z,-3.22
2023-01-29T23:29:34.430Z,-3.19
2023-01-29T23:32:01.746Z,-3.20
2023-01-29T23:34:29.295Z,-3.27
2023-01-29T23:36:58.036Z,-3.28
2023-01-29T23:39:25.429Z,-3.21
2023-01-29T23:41:52.685Z,-3.27
2023-01-29T23:44:20.893Z,-3.29
2023-01-29T23:46:48.368Z,-3.29
2023-01-29T23:49:15.824Z,-3.31
2023-01-29T23:51:43.395Z,-3.26
2023-01-29T23:54:13.414Z,-3.25
2023-01-29T23:56:40.714Z,-3.29
2023-01-29T23:59:08.053Z,-3.32
